createdAt,value
2023-02-22T00:01:47.897Z,20.33
2023-02-22T00:04:20.171Z,20.90
2023-02-22T00:06:48.852Z,20.83
2023-02-22T00:09:21.437Z,23.50
2023-02-22T00:11:49.404Z,22.17
2023-02-22T00:14:20.352Z,20.80
2023-02-22T00:16:48.241Z,20.43
2023-02-22T00:19:16.115Z,20.60
2023-02-22T00:21:45.323Z,25.40
2023-02-22T00:24:26.396Z,22.47
2023-02-22T00:26:57.879Z,21.30
2023-02-22T00:29:25.651Z,22.50
2023-02-22T00:31:54.181Z,21.50
2023-02-22T00:34:24.004Z,23.00
2023-02-22T00:36:51.937Z,20.60
2023-02-22T00:39:19.360Z,25.87
2023-02-22T00:41:46.989Z,20.70
2023-02-22T00:44:14.974Z,20.87
2023-02-22T00:46:42.844Z,20.43
2023-02-22T00:49:10.336Z,19.70
2023-02-22T00:51:37.804Z,22.23
2023-02-22T00:54:07.119Z,25.50
2023-02-22T00:56:35.308Z,22.10
2023-02-22T00:59:03.052Z,18.30
2023-02-22T01:01:31.238Z,20.13
2023-02-22T01:03:59.057Z,24.67
2023-02-22T01:06:26.962Z,19.30
2023-02-22T01:21:26.490Z,21.87
2023-02-22T01:23:55.083Z,30.97
2023-02-22T01:26:22.807Z,24.53
2023-02-22T01:28:50.078Z,18.30
2023-02-22T01:31:18.021Z,22.43
2023-02-22T01:33:45.552Z,18.90
2023-02-22T01:36:14.619Z,24.20
2023-02-22T01:38:41.751Z,19.63
2023-02-22T01:41:08.991Z,24.10
2023-02-22T01:43:40.079Z,21.10
2023-02-22T01:46:23.872Z,21.90
2023-02-22T01:48:59.603Z,22.83
2023-02-22T01:51:28.667Z,23.30
2023-02-22T01:54:15.216Z,21.00
2023-02-22T01:56:47.320Z,24.43
2023-02-22T01:59:15.268Z,25.13
2023-02-22T02:01:46.013Z,23.83
2023-02-22T02:04:15.525Z,17.33
2023-02-22T02:06:43.195Z,18.53
2023-02-22T02:09:14.025Z,22.63
2023-02-22T02:11:44.389Z,19.00
2023-02-22T02:14:12.848Z,21.47
2023-02-22T02:16:48.319Z,20.43
2023-02-22T02:19:31.649Z,24.47
2023-02-22T02:22:04.904Z,19.40
2023-02-22T02:24:39.660Z,21.70
2023-02-22T02:27:19.273Z,21.23
2023-02-22T02:29:55.949Z,21.60
2023-02-22T02:32:23.473Z,23.57
2023-02-22T02:35:07.452Z,21.30
2023-02-22T02:37:39.450Z,23.67
2023-02-22T02:40:12.777Z,25.07
2023-02-22T02:42:45.367Z,20.97
2023-02-22T02:45:16.284Z,20.90
2023-02-22T02:47:46.607Z,26.97
2023-02-22T02:50:20.460Z,20.60
2023-02-22T02:52:48.695Z,19.57
2023-02-22T02:55:18.266Z,23.17
2023-02-22T02:57:48.162Z,23.17
2023-02-22T03:00:22.487Z,24.77
2023-02-22T03:03:10.236Z,20.70
2023-02-22T03:05:56.410Z,20.40
2023-02-22T03:08:27.081Z,21.23
2023-02-22T03:11:14.795Z,18.40
2023-02-22T03:13:52.026Z,25.03
2023-02-22T03:16:23.716Z,23.43
2023-02-22T03:18:54.835Z,22.30
2023-02-22T03:21:25.902Z,22.47
2023-02-22T03:24:09.663Z,24.90
2023-02-22T03:27:02.825Z,19.70
2023-02-22T03:29:35.594Z,19.83
2023-02-22T03:32:07.786Z,17.23
2023-02-22T03:34:41.483Z,20.50
2023-02-22T03:37:15.816Z,19.10
2023-02-22T03:39:45.142Z,21.97
2023-02-22T03:42:15.371Z,18.30
2023-02-22T03:44:44.978Z,20.20
2023-02-22T03:47:15.111Z,24.13
2023-02-22T03:49:57.961Z,19.60
2023-02-22T03:52:25.746Z,17.63
2023-02-22T03:54:55.287Z,19.03
2023-02-22T03:57:37.189Z,27.20
2023-02-22T04:00:07.410Z,17.30
2023-02-22T04:02:40.705Z,20.33
2023-02-22T04:05:14.210Z,17.33
2023-02-22T04:07:42.648Z,18.83
2023-02-22T04:10:12.051Z,16.83
2023-02-22T04:12:39.462Z,22.20
2023-02-22T04:15:09.218Z,19.87
2023-02-22T04:17:39.161Z,19.57
2023-02-22T04:20:07.208Z,18.00
2023-02-22T04:22:56.365Z,16.73
2023-02-22T04:25:24.120Z,19.80
2023-02-22T04:27:52.675Z,16.93
2023-02-22T04:30:25.127Z,30.73
2023-02-22T04:32:53.434Z,20.03
2023-02-22T04:35:22.355Z,23.73
2023-02-22T04:37:49.668Z,13.90
2023-02-22T04:40:17.826Z,19.17
2023-02-22T04:42:45.514Z,18.70
2023-02-22T04:45:15.005Z,17.80
2023-02-22T04:47:42.378Z,20.97
2023-02-22T04:50:10.394Z,17.50
2023-02-22T04:52:37.726Z,20.40
2023-02-22T04:55:06.304Z,19.20
2023-02-22T04:57:34.972Z,22.07
2023-02-22T05:00:02.234Z,23.70
2023-02-22T05:02:32.166Z,20.87
2023-02-22T05:04:59.343Z,23.07
2023-02-22T05:07:26.722Z,20.40
2023-02-22T05:09:53.924Z,20.40
2023-02-22T05:12:21.349Z,24.23
2023-02-22T05:14:48.568Z,22.37
2023-02-22T05:17:15.762Z,21.70
2023-02-22T05:19:42.961Z,28.30
2023-02-22T05:22:10.257Z,24.30
2023-02-22T05:24:38.426Z,22.97
2023-02-22T05:27:08.098Z,20.70
2023-02-22T05:29:35.856Z,23.10
2023-02-22T05:32:03.942Z,28.20
2023-02-22T05:34:31.152Z,23.07
2023-02-22T05:36:58.398Z,20.10
2023-02-22T05:39:25.566Z,23.67
2023-02-22T05:41:52.669Z,26.13
2023-02-22T05:44:19.833Z,20.27
2023-02-22T05:46:47.070Z,19.43
2023-02-22T05:49:14.550Z,22.20
2023-02-22T05:51:42.511Z,25.47
2023-02-22T05:54:09.685Z,19.97
2023-02-22T05:56:41.179Z,22.70
2023-02-22T05:59:08.314Z,19.60
2023-02-22T06:01:35.966Z,21.00
2023-02-22T06:04:04.033Z,21.83
2023-02-22T06:06:31.353Z,19.13
2023-02-22T06:08:58.541Z,18.30
2023-02-22T06:11:25.726Z,19.33
2023-02-22T06:13:54.014Z,21.30
2023-02-22T06:16:22.337Z,19.33
2023-02-22T06:18:50.126Z,21.10
2023-02-22T06:21:17.766Z,29.40
2023-02-22T06:23:45.946Z,29.13
2023-02-22T06:26:13.217Z,24.40
2023-02-22T06:28:40.359Z,20.97
2023-02-22T06:31:07.510Z,20.03
2023-02-22T06:33:34.701Z,19.57
2023-02-22T06:36:02.148Z,24.43
2023-02-22T06:38:29.283Z,18.30
2023-02-22T06:40:56.662Z,18.67
2023-02-22T06:43:24.790Z,22.63
2023-02-22T06:45:52.602Z,19.03
2023-02-22T06:48:22.326Z,17.90
2023-02-22T06:50:50.067Z,14.73
2023-02-22T06:53:18.843Z,17.63
2023-02-22T06:55:46.101Z,15.30
2023-02-22T06:58:13.309Z,15.30
2023-02-22T07:00:40.652Z,15.50
2023-02-22T07:03:07.842Z,19.30
2023-02-22T07:05:35.308Z,18.03
2023-02-22T07:08:07.580Z,15.57
2023-02-22T07:10:35.657Z,19.20
2023-02-22T07:13:04.604Z,17.73
2023-02-22T07:15:32.594Z,15.73
2023-02-22T07:17:59.806Z,17.17
2023-02-22T07:20:27.786Z,15.23
2023-02-22T07:22:55.271Z,15.60
2023-02-22T07:25:23.652Z,16.03
2023-02-22T07:27:52.290Z,16.00
2023-02-22T07:30:25.093Z,18.50
2023-02-22T07:32:53.383Z,26.03
2023-02-22T07:35:25.173Z,16.50
2023-02-22T07:37:55.426Z,20.87
2023-02-22T07:40:23.845Z,18.10
2023-02-22T07:43:14.112Z,19.07
2023-02-22T07:45:42.961Z,20.13
2023-02-22T07:48:10.132Z,18.77
2023-02-22T07:50:37.336Z,19.33
2023-02-22T07:53:06.125Z,19.70
2023-02-22T07:55:34.108Z,19.13
2023-02-22T07:58:02.674Z,24.40
2023-02-22T08:00:31.688Z,25.57
2023-02-22T08:03:00.005Z,25.90
2023-02-22T08:05:28.120Z,23.00
2023-02-22T08:07:55.383Z,20.93
2023-02-22T08:10:23.311Z,18.53
2023-02-22T08:12:50.855Z,21.67
2023-02-22T08:15:24.158Z,22.10
2023-02-22T08:17:51.480Z,23.70
2023-02-22T08:20:19.230Z,24.90
2023-02-22T08:22:47.400Z,18.80
2023-02-22T08:25:16.305Z,25.17
2023-02-22T08:27:43.850Z,29.53
2023-02-22T08:30:14.697Z,29.10
2023-02-22T08:32:42.134Z,20.03
2023-02-22T08:35:11.124Z,25.17
2023-02-22T08:37:42.210Z,21.93
2023-02-22T08:40:14.623Z,31.27
2023-02-22T08:42:42.070Z,35.97
2023-02-22T08:45:10.086Z,26.70
2023-02-22T08:47:39.825Z,30.37
2023-02-22T08:50:07.396Z,30.70
2023-02-22T08:52:35.152Z,28.97
2023-02-22T08:55:02.774Z,29.40
2023-02-22T08:57:31.747Z,25.13
2023-02-22T09:00:01.212Z,31.70
2023-02-22T09:02:28.396Z,36.13
2023-02-22T09:04:55.573Z,43.87
2023-02-22T09:07:22.783Z,32.67
2023-02-22T09:09:49.954Z,35.10
2023-02-22T09:12:17.374Z,36.13
2023-02-22T09:14:45.536Z,34.80
2023-02-22T09:17:12.741Z,28.30
2023-02-22T09:19:40.919Z,31.17
2023-02-22T09:22:08.055Z,27.63
2023-02-22T09:24:36.004Z,28.57
2023-02-22T09:27:04.531Z,24.90
2023-02-22T09:29:32.753Z,23.77
2023-02-22T09:32:00.110Z,20.50
2023-02-22T09:34:30.375Z,30.20
2023-02-22T09:36:58.186Z,32.40
2023-02-22T09:39:25.570Z,30.13
2023-02-22T09:42:11.582Z,27.00
2023-02-22T09:44:51.494Z,31.07
2023-02-22T09:47:20.394Z,32.13
2023-02-22T09:49:57.730Z,29.03
2023-02-22T09:52:27.766Z,31.47
2023-02-22T09:55:08.105Z,28.07
2023-02-22T09:57:43.850Z,29.67
2023-02-22T10:00:18.257Z,27.70
2023-02-22T10:03:09.415Z,30.93
2023-02-22T10:05:38.106Z,37.80
2023-02-22T10:08:08.729Z,31.23
2023-02-22T10:10:39.149Z,29.87
2023-02-22T10:13:25.141Z,33.23
2023-02-22T10:16:16.198Z,29.50
2023-02-22T10:19:08.214Z,35.70
2023-02-22T10:21:47.701Z,36.70
2023-02-22T10:24:26.117Z,43.93
2023-02-22T10:26:54.910Z,33.07
2023-02-22T10:29:42.928Z,30.60
2023-02-22T10:32:19.724Z,31.47
2023-02-22T10:34:51.707Z,31.47
2023-02-22T10:37:28.440Z,36.30
2023-02-22T10:40:21.240Z,35.00
2023-02-22T10:42:48.612Z,34.17
2023-02-22T10:45:22.370Z,32.80
2023-02-22T10:47:50.287Z,37.03
2023-02-22T10:50:20.763Z,36.07
2023-02-22T10:52:49.064Z,33.13
2023-02-22T10:55:17.260Z,33.43
2023-02-22T10:57:49.693Z,32.40
2023-02-22T11:00:26.482Z,31.57
2023-02-22T11:02:55.952Z,31.50
2023-02-22T11:05:28.088Z,29.60
2023-02-22T11:08:14.932Z,32.10
2023-02-22T11:10:44.496Z,32.33
2023-02-22T11:13:28.381Z,37.10
2023-02-22T11:15:57.394Z,29.60
2023-02-22T11:18:33.691Z,29.93
2023-02-22T11:21:02.178Z,28.80
2023-02-22T11:23:29.761Z,31.43
2023-02-22T11:26:02.447Z,29.40
2023-02-22T11:28:35.798Z,29.50
2023-02-22T11:31:14.928Z,28.83
2023-02-22T11:33:48.708Z,30.87
2023-02-22T11:36:30.513Z,31.10
2023-02-22T11:39:00.677Z,29.83
2023-02-22T11:41:30.187Z,32.20
2023-02-22T11:44:12.905Z,29.63
2023-02-22T11:46:40.946Z,31.10
2023-02-22T11:49:17.282Z,29.87
2023-02-22T11:51:49.407Z,28.60
2023-02-22T11:54:31.097Z,29.47
2023-02-22T11:57:03.562Z,32.73
2023-02-22T11:59:40.707Z,31.67
2023-02-22T12:02:27.877Z,32.80
2023-02-22T12:05:22.115Z,33.80
2023-02-22T12:08:03.173Z,30.97
2023-02-22T12:10:44.316Z,29.93
2023-02-22T12:13:21.889Z,30.80
2023-02-22T12:16:09.352Z,32.30
2023-02-22T12:18:59.865Z,34.57
2023-02-22T12:21:29.727Z,32.93
2023-02-22T12:24:08.369Z,28.20
2023-02-22T12:26:40.363Z,31.00
2023-02-22T12:29:12.877Z,38.77
2023-02-22T12:31:45.426Z,33.83
2023-02-22T12:34:31.811Z,30.13
2023-02-22T12:37:04.339Z,28.37
2023-02-22T12:39:52.645Z,28.77
2023-02-22T12:42:31.090Z,35.50
2023-02-22T12:45:11.418Z,31.63
2023-02-22T12:47:44.644Z,31.13
2023-02-22T12:50:16.465Z,31.63
2023-02-22T12:52:57.779Z,32.13
2023-02-22T12:55:28.269Z,28.90
2023-02-22T12:57:57.046Z,31.20
2023-02-22T13:00:35.453Z,32.33
2023-02-22T13:03:04.731Z,28.30
2023-02-22T13:05:37.503Z,27.03
2023-02-22T13:08:13.384Z,28.27
2023-02-22T13:10:58.389Z,28.37
2023-02-22T13:13:31.419Z,23.53
2023-02-22T13:15:58.644Z,28.23
2023-02-22T13:18:41.959Z,24.80
2023-02-22T13:21:20.483Z,24.83
2023-02-22T13:24:03.350Z,24.60
2023-02-22T13:26:46.495Z,21.30
2023-02-22T13:29:32.458Z,24.10
2023-02-22T13:32:19.939Z,19.93
2023-02-22T13:34:56.962Z,31.00
2023-02-22T13:37:39.285Z,22.20
2023-02-22T13:40:25.878Z,17.50
2023-02-22T13:43:00.610Z,19.70
2023-02-22T13:45:34.909Z,20.60
2023-02-22T13:48:21.069Z,23.40
2023-02-22T13:50:51.106Z,20.53
2023-02-22T13:53:21.201Z,19.97
2023-02-22T13:55:52.276Z,15.87
2023-02-22T13:58:20.810Z,18.27
2023-02-22T14:00:57.919Z,21.87
2023-02-22T14:03:37.130Z,18.63
2023-02-22T14:06:05.729Z,17.80
2023-02-22T14:08:33.673Z,18.30
2023-02-22T14:11:27.280Z,17.00
2023-02-22T14:13:55.751Z,22.47
2023-02-22T14:16:28.168Z,24.67
2023-02-22T14:19:24.970Z,21.47
2023-02-22T14:21:57.053Z,19.30
2023-02-22T14:24:24.586Z,16.50
2023-02-22T14:26:56.361Z,19.20
2023-02-22T14:29:23.993Z,19.03
2023-02-22T14:31:51.176Z,17.03
2023-02-22T14:34:23.526Z,15.00
2023-02-22T14:36:55.935Z,23.70
2023-02-22T14:39:36.053Z,17.90
2023-02-22T14:42:22.572Z,25.87
2023-02-22T14:47:44.321Z,18.30
2023-02-22T14:50:23.572Z,16.27
2023-02-22T14:53:03.914Z,20.33
2023-02-22T14:55:32.182Z,22.27
2023-02-22T14:58:05.813Z,19.53
2023-02-22T15:00:41.915Z,16.10
2023-02-22T15:03:38.005Z,20.30
2023-02-22T15:09:30.590Z,21.33
2023-02-22T15:12:08.887Z,16.87
2023-02-22T15:14:41.020Z,20.00
2023-02-22T15:17:09.789Z,22.27
2023-02-22T15:19:39.718Z,24.27
2023-02-22T15:22:09.208Z,21.27
2023-02-22T15:24:38.755Z,28.57
2023-02-22T15:27:15.805Z,25.33
2023-02-22T15:29:45.274Z,22.30
2023-02-22T15:32:33.673Z,23.60
2023-02-22T15:35:24.482Z,24.47
2023-02-22T15:38:04.079Z,26.77
2023-02-22T15:40:36.229Z,24.30
2023-02-22T15:43:11.201Z,24.57
2023-02-22T15:45:43.400Z,21.10
2023-02-22T15:48:18.105Z,24.43
2023-02-22T15:51:10.846Z,25.00
2023-02-22T15:53:39.882Z,29.57
2023-02-22T15:56:10.677Z,28.63
2023-02-22T15:58:39.795Z,23.23
2023-02-22T16:01:11.891Z,22.57
2023-02-22T16:03:45.340Z,22.47
2023-02-22T16:06:17.215Z,27.43
2023-02-22T16:08:55.029Z,23.97
2023-02-22T16:11:33.764Z,23.07
2023-02-22T16:14:04.724Z,25.40
2023-02-22T16:16:33.628Z,25.40
2023-02-22T16:19:19.301Z,26.83
2023-02-22T16:21:55.759Z,26.60
2023-02-22T16:24:27.310Z,29.20
2023-02-22T16:27:14.367Z,30.83
2023-02-22T16:29:41.522Z,31.23
2023-02-22T16:32:11.506Z,25.73
2023-02-22T16:34:38.714Z,31.17
2023-02-22T16:37:05.867Z,32.00
2023-02-22T16:39:35.898Z,30.80
2023-02-22T16:42:05.083Z,28.07
2023-02-22T16:44:34.439Z,31.77
2023-02-22T16:47:02.777Z,30.20
2023-02-22T16:49:30.682Z,29.90
2023-02-22T16:52:01.357Z,37.47
2023-02-22T16:54:42.038Z,38.13
2023-02-22T16:57:16.314Z,30.73
2023-02-22T16:59:43.498Z,32.90
2023-02-22T17:02:14.225Z,30.77
2023-02-22T17:04:49.796Z,38.27
2023-02-22T17:07:20.691Z,37.93
2023-02-22T17:09:47.946Z,36.77
2023-02-22T17:12:15.189Z,32.73
2023-02-22T17:14:45.407Z,30.27
2023-02-22T17:17:16.069Z,38.40
2023-02-22T17:19:43.252Z,35.23
2023-02-22T17:22:18.360Z,31.93
2023-02-22T17:24:45.835Z,40.30
2023-02-22T17:27:13.228Z,32.70
2023-02-22T17:29:44.928Z,38.43
2023-02-22T17:32:12.970Z,35.23
2023-02-22T17:34:40.606Z,30.30
2023-02-22T17:37:07.765Z,39.23
2023-02-22T17:39:34.889Z,33.77
2023-02-22T17:42:02.397Z,41.57
2023-02-22T17:44:31.046Z,33.00
2023-02-22T17:46:59.316Z,38.00
2023-02-22T17:49:26.538Z,32.17
2023-02-22T17:51:56.711Z,37.27
2023-02-22T17:54:24.784Z,34.80
2023-02-22T17:56:51.950Z,33.53
2023-02-22T17:59:20.322Z,40.23
2023-02-22T18:01:48.121Z,32.93
2023-02-22T18:04:17.679Z,33.87
2023-02-22T18:06:46.576Z,40.83
2023-02-22T18:09:17.525Z,26.33
2023-02-22T18:11:44.711Z,35.27
2023-02-22T18:14:12.256Z,35.90
2023-02-22T18:16:41.413Z,32.27
2023-02-22T18:19:09.602Z,46.03
2023-02-22T18:21:36.844Z,38.70
2023-02-22T18:24:04.126Z,37.60
2023-02-22T18:26:31.278Z,32.00
2023-02-22T18:29:00.404Z,38.17
2023-02-22T18:31:27.726Z,34.00
2023-02-22T18:33:57.427Z,34.13
2023-02-22T18:36:25.012Z,34.30
2023-02-22T18:38:53.850Z,33.70
2023-02-22T18:41:25.011Z,30.90
2023-02-22T18:43:54.367Z,33.73
2023-02-22T18:46:22.873Z,35.83
2023-02-22T18:48:53.031Z,29.50
2023-02-22T18:51:20.202Z,37.77
2023-02-22T18:53:49.766Z,32.50
2023-02-22T18:56:21.419Z,37.47
2023-02-22T18:58:49.127Z,31.00
2023-02-22T19:01:18.209Z,32.63
2023-02-22T19:03:49.059Z,32.97
2023-02-22T19:06:18.294Z,35.90
2023-02-22T19:08:47.001Z,33.57
2023-02-22T19:11:17.833Z,30.23
2023-02-22T19:13:46.389Z,40.50
2023-02-22T19:16:16.400Z,39.57
2023-02-22T19:18:44.843Z,33.50
2023-02-22T19:21:13.919Z,41.80
2023-02-22T19:23:48.848Z,38.13
2023-02-22T19:26:21.078Z,33.80
2023-02-22T19:28:49.112Z,36.73
2023-02-22T19:31:18.774Z,36.33
2023-02-22T19:33:47.767Z,39.33
2023-02-22T19:36:15.870Z,31.93
2023-02-22T19:38:43.911Z,36.53
2023-02-22T19:41:12.341Z,30.30
2023-02-22T19:43:39.795Z,37.47
2023-02-22T19:46:08.364Z,31.67
2023-02-22T19:48:35.815Z,37.60
2023-02-22T19:51:06.259Z,34.10
2023-02-22T19:53:34.318Z,39.70
2023-02-22T19:56:04.254Z,35.37
2023-02-22T19:58:36.536Z,36.07
2023-02-22T20:01:13.461Z,33.40
2023-02-22T20:03:43.206Z,37.83
2023-02-22T20:06:16.478Z,41.70
2023-02-22T20:08:43.644Z,34.20
2023-02-22T20:11:13.520Z,43.60
2023-02-22T20:13:41.220Z,44.30
2023-02-22T20:16:12.275Z,37.40
2023-02-22T20:18:39.819Z,31.57
2023-02-22T20:21:08.381Z,34.23
2023-02-22T20:23:35.902Z,36.47
2023-02-22T20:26:04.272Z,34.90
2023-02-22T20:28:31.422Z,40.07
2023-02-22T20:30:58.597Z,34.20
2023-02-22T20:33:26.216Z,41.63
2023-02-22T20:35:53.456Z,35.77
2023-02-22T20:38:20.593Z,37.77
2023-02-22T20:40:47.782Z,41.53
2023-02-22T20:43:14.902Z,39.93
2023-02-22T20:45:43.375Z,33.23
2023-02-22T20:48:12.096Z,36.17
2023-02-22T20:50:39.261Z,35.87
2023-02-22T20:53:06.439Z,37.53
2023-02-22T20:55:33.595Z,44.30
2023-02-22T20:58:01.216Z,40.30
2023-02-22T21:00:28.347Z,38.97
2023-02-22T21:02:55.960Z,36.83
2023-02-22T21:05:23.095Z,43.43
2023-02-22T21:07:50.263Z,40.60
2023-02-22T21:10:20.851Z,39.33
2023-02-22T21:12:49.196Z,36.77
2023-02-22T21:15:17.414Z,41.37
2023-02-22T21:17:47.392Z,39.77
2023-02-22T21:20:14.785Z,38.53
2023-02-22T21:22:43.718Z,38.90
2023-02-22T21:25:10.915Z,32.00
2023-02-22T21:27:38.120Z,40.53
2023-02-22T21:30:05.485Z,37.23
2023-02-22T21:32:35.433Z,37.30
2023-02-22T21:35:02.666Z,37.27
2023-02-22T21:37:30.128Z,32.53
2023-02-22T21:39:58.961Z,37.30
2023-02-22T21:42:26.164Z,39.90
2023-02-22T21:44:56.391Z,39.40
2023-02-22T21:47:23.952Z,39.80
2023-02-22T21:49:51.159Z,39.87
2023-02-22T21:52:18.614Z,33.67
2023-02-22T21:54:45.729Z,36.40
2023-02-22T21:57:14.661Z,33.13
2023-02-22T21:59:43.047Z,42.17
2023-02-22T22:02:10.927Z,37.73
2023-02-22T22:04:38.089Z,39.50
2023-02-22T22:07:06.108Z,34.23
2023-02-22T22:09:35.316Z,36.37
2023-02-22T22:12:06.054Z,42.60
2023-02-22T22:14:34.042Z,30.90
2023-02-22T22:17:01.445Z,36.73
2023-02-22T22:19:33.178Z,44.50
2023-02-22T22:22:00.754Z,39.27
2023-02-22T22:24:31.935Z,41.63
2023-02-22T22:27:03.465Z,41.33
2023-02-22T22:29:34.112Z,40.70
2023-02-22T22:32:01.790Z,44.00
2023-02-22T22:34:29.833Z,34.50
2023-02-22T22:37:00.264Z,36.37
2023-02-22T22:39:27.532Z,38.83
2023-02-22T22:41:54.759Z,37.40
2023-02-22T22:44:22.167Z,41.17
2023-02-22T22:46:50.014Z,39.53
2023-02-22T22:49:17.338Z,35.70
2023-02-22T22:51:47.242Z,39.87
2023-02-22T22:54:14.418Z,40.43
2023-02-22T22:56:41.926Z,39.97
2023-02-22T22:59:12.992Z,41.70
2023-02-22T23:01:44.128Z,38.43
2023-02-22T23:04:12.790Z,36.50
2023-02-22T23:06:41.847Z,39.37
2023-02-22T23:09:11.845Z,41.23
2023-02-22T23:11:44.528Z,39.40
2023-02-22T23:14:19.557Z,39.97
2023-02-22T23:16:47.644Z,41.00
2023-02-22T23:19:19.379Z,39.00
2023-02-22T23:21:47.942Z,39.87
2023-02-22T23:24:16.252Z,39.40
2023-02-22T23:26:51.219Z,37.27
2023-02-22T23:29:19.628Z,40.00
2023-02-22T23:31:48.586Z,40.60
2023-02-22T23:34:17.969Z,38.30
2023-02-22T23:36:45.452Z,34.10
2023-02-22T23:39:14.230Z,41.87
2023-02-22T23:41:42.484Z,37.30
2023-02-22T23:44:13.853Z,37.57
2023-02-22T23:46:44.635Z,42.40
2023-02-22T23:49:12.218Z,39.90
2023-02-22T23:51:41.977Z,41.90
2023-02-22T23:54:15.063Z,39.70
2023-02-22T23:57:09.706Z,45.20
2023-02-22T23:59:41.192Z,39.43
